Chopin — ZDFE4 — position and weather

sailwx.info

Track history (hours):
 
Tides and Currents Weather Stations Pressure Air Temp Water Temp Dewpoint Dewpoint Depression Visibility Wind Speed Wind Dir Waves Ship Positions

Chopin

Last reported at 2014-Nov-21 16:33 UTC. Time now 2014-Nov-21 19:08 UTC.
Position N 43°53' W 003°21'.

Length 104 m; draft 4.2 m.

Type: Cargo ship. MMSI: 236099000.

Date/timePositionNaut miles runAvg speedWind from/ knotsBaromVisibWave heightAir tempDewpointWater temp
2014-Nov-21 16:33N 43°53' W 003°21'1110.8
2014-Nov-21 15:33N 43°43' W 003°15'9 8.9
2014-Nov-21 14:33N 43°34' W 003°11'10 9.6
2014-Nov-21 13:34N 43°25' W 003°06'6 5.4
2014-Nov-21 12:31N 43°21' W 003°02'0 0.0
2014-Nov-21 11:31N 43°21' W 003°02'0 0.0
2014-Nov-21 10:31N 43°21' W 003°02'0 0.0
2014-Nov-21 09:31N 43°21' W 003°02'0 0.0
2014-Nov-21 08:31N 43°21' W 003°02'0 0.0
2014-Nov-21 07:31N 43°21' W 003°02'0 0.0
2014-Nov-21 06:31N 43°21' W 003°02'0 0.0
2014-Nov-21 05:31N 43°21' W 003°02'0 0.0
2014-Nov-21 04:31N 43°21' W 003°02'0 0.0
2014-Nov-21 03:31N 43°21' W 003°02'0 0.0
2014-Nov-21 02:31N 43°21' W 003°02'0 0.0
2014-Nov-21 01:25N 43°21' W 003°02'0 0.0
2014-Nov-21 00:13N 43°21' W 003°02'0 0.0
2014-Nov-20 23:31N 43°21' W 003°02'0 0.0
2014-Nov-20 22:34N 43°21' W 003°02'0 0.0
2014-Nov-20 21:33N 43°21' W 003°02'0 0.0
2014-Nov-20 20:33N 43°21' W 003°02'0 0.0
2014-Nov-20 19:33N 43°21' W 003°02'0 0.0
2014-Nov-20 18:33N 43°21' W 003°02'  
2014-Nov-17 01:23N 50°00' W 002°55'8 9.8
2014-Nov-17 00:33N 50°03' W 002°43'11910.5
2014-Nov-16 13:11N 50°35' E 000°17'610.2
2014-Nov-16 12:34N 50°37' E 000°26'1010.5
2014-Nov-16 11:34N 50°42' E 000°41'1110.6
2014-Nov-16 10:33N 50°48' E 000°55'1010.2
2014-Nov-16 09:33N 50°54' E 001°08'1010.0
2014-Nov-16 08:33N 51°01' E 001°20'9 9.4
2014-Nov-16 07:33N 51°07' E 001°31'9 9.0
2014-Nov-16 06:34N 51°12' E 001°42'9 9.2
2014-Nov-16 05:34N 51°20' E 001°51'10 9.7
2014-Nov-16 04:33N 51°27' E 002°01'1110.7
2014-Nov-16 03:34N 51°35' E 002°12'131 9.8
2014-Nov-15 14:13N 53°17' E 004°29'7 9.8
2014-Nov-15 13:33N 53°23' E 004°33'8 8.5
2014-Nov-15 12:34N 53°29' E 004°42'9 9.1
2014-Nov-15 11:34N 53°32' E 004°56'9 9.2
2014-Nov-15 10:34N 53°36' E 005°11'9 9.4
2014-Nov-15 09:34N 53°38' E 005°26'1010.4
2014-Nov-15 08:34N 53°42' E 005°43'1110.8
2014-Nov-15 07:33N 53°45' E 005°60'1211.1
2014-Nov-15 06:28N 53°49' E 006°19'42 9.8
2014-Nov-15 02:12N 53°60' E 007°28'6 9.3
2014-Nov-15 01:33N 54°01' E 007°38'9 9.3
2014-Nov-15 00:34N 54°01' E 007°54'10 9.5
2014-Nov-14 23:33N 54°00' E 008°10'1110.9
2014-Nov-14 22:33N 53°59' E 008°28'1212.3
2014-Nov-14 21:34N 53°51' E 008°45'1312.5
2014-Nov-14 20:33N 53°53' E 009°06'3 3.4
2014-Nov-14 19:33N 53°55' E 009°11'0 0.0
2014-Nov-14 18:33N 53°55' E 009°11'0 0.0
2014-Nov-14 17:33N 53°55' E 009°11'3 2.5
2014-Nov-14 16:33N 53°57' E 009°14'8 8.2
2014-Nov-14 15:33N 54°04' E 009°19'8 7.9
2014-Nov-14 14:33N 54°11' E 009°27'13 6.5
2014-Nov-14 12:33N 54°20' E 009°43'6 5.8
2014-Nov-14 11:33N 54°21' E 009°53'7 7.5
2014-Nov-14 10:33N 54°22' E 010°05'2 2.3
2014-Nov-14 09:33N 54°22' E 010°09'2 1.7
2014-Nov-14 08:33N 54°23' E 010°11'9 9.2
2014-Nov-14 07:33N 54°31' E 010°20'4310.6
2014-Nov-14 03:32N 54°30' E 011°34'1010.6
2014-Nov-14 02:33N 54°26' E 011°51'10 9.8
2014-Nov-14 01:34N 54°27' E 012°08'21 9.3
2014-Nov-13 23:18N 54°43' E 012°31'6010.5
2014-Nov-13 17:33N 55°07' E 014°07'1111.0
2014-Nov-13 16:33N 55°16' E 014°19'1311.0
2014-Nov-13 15:23N 55°26' E 014°34'910.6
2014-Nov-13 14:33N 55°30' E 014°47'1110.7
2014-Nov-13 13:33N 55°36' E 015°03'4310.7
2014-Nov-13 09:33N 55°57' E 016°09'1110.8
2014-Nov-13 08:33N 56°03' E 016°26'89 9.8
2014-Nov-12 23:31N 57°22' E 017°38'1010.1
2014-Nov-12 22:32N 57°31' E 017°45'  
Track history (hours):
 
Tides and Currents Weather Stations Pressure Air Temp Water Temp Dewpoint Dewpoint Depression Visibility Wind Speed Wind Dir Waves Ship Positions

Chopin

Last reported at 2014-Nov-21 16:33 UTC. Time now 2014-Nov-21 19:08 UTC.
Position N 43°53' W 003°21'.

Length 104 m; draft 4.2 m.

Type: Cargo ship. MMSI: 236099000.

Date/timePositionNaut miles runAvg speedWind from/ knotsBaromVisibWave heightAir tempDewpointWater temp
2014-Nov-21 16:33N 43°53' W 003°21'1110.8
2014-Nov-21 15:33N 43°43' W 003°15'9 8.9
2014-Nov-21 14:33N 43°34' W 003°11'10 9.6
2014-Nov-21 13:34N 43°25' W 003°06'6 5.4
2014-Nov-21 12:31N 43°21' W 003°02'0 0.0
2014-Nov-21 11:31N 43°21' W 003°02'0 0.0
2014-Nov-21 10:31N 43°21' W 003°02'0 0.0
2014-Nov-21 09:31N 43°21' W 003°02'0 0.0
2014-Nov-21 08:31N 43°21' W 003°02'0 0.0
2014-Nov-21 07:31N 43°21' W 003°02'0 0.0
2014-Nov-21 06:31N 43°21' W 003°02'0 0.0
2014-Nov-21 05:31N 43°21' W 003°02'0 0.0
2014-Nov-21 04:31N 43°21' W 003°02'0 0.0
2014-Nov-21 03:31N 43°21' W 003°02'0 0.0
2014-Nov-21 02:31N 43°21' W 003°02'0 0.0
2014-Nov-21 01:25N 43°21' W 003°02'0 0.0
2014-Nov-21 00:13N 43°21' W 003°02'0 0.0
2014-Nov-20 23:31N 43°21' W 003°02'0 0.0
2014-Nov-20 22:34N 43°21' W 003°02'0 0.0
2014-Nov-20 21:33N 43°21' W 003°02'0 0.0
2014-Nov-20 20:33N 43°21' W 003°02'0 0.0
2014-Nov-20 19:33N 43°21' W 003°02'0 0.0
2014-Nov-20 18:33N 43°21' W 003°02'  
2014-Nov-17 01:23N 50°00' W 002°55'8 9.8
2014-Nov-17 00:33N 50°03' W 002°43'11910.5
2014-Nov-16 13:11N 50°35' E 000°17'610.2
2014-Nov-16 12:34N 50°37' E 000°26'1010.5
2014-Nov-16 11:34N 50°42' E 000°41'1110.6
2014-Nov-16 10:33N 50°48' E 000°55'1010.2
2014-Nov-16 09:33N 50°54' E 001°08'1010.0
2014-Nov-16 08:33N 51°01' E 001°20'9 9.4
2014-Nov-16 07:33N 51°07' E 001°31'9 9.0
2014-Nov-16 06:34N 51°12' E 001°42'9 9.2
2014-Nov-16 05:34N 51°20' E 001°51'10 9.7
2014-Nov-16 04:33N 51°27' E 002°01'1110.7
2014-Nov-16 03:34N 51°35' E 002°12'131 9.8
2014-Nov-15 14:13N 53°17' E 004°29'7 9.8
2014-Nov-15 13:33N 53°23' E 004°33'8 8.5
2014-Nov-15 12:34N 53°29' E 004°42'9 9.1
2014-Nov-15 11:34N 53°32' E 004°56'9 9.2
2014-Nov-15 10:34N 53°36' E 005°11'9 9.4
2014-Nov-15 09:34N 53°38' E 005°26'1010.4
2014-Nov-15 08:34N 53°42' E 005°43'1110.8
2014-Nov-15 07:33N 53°45' E 005°60'1211.1
2014-Nov-15 06:28N 53°49' E 006°19'42 9.8
2014-Nov-15 02:12N 53°60' E 007°28'6 9.3
2014-Nov-15 01:33N 54°01' E 007°38'9 9.3
2014-Nov-15 00:34N 54°01' E 007°54'10 9.5
2014-Nov-14 23:33N 54°00' E 008°10'1110.9
2014-Nov-14 22:33N 53°59' E 008°28'1212.3
2014-Nov-14 21:34N 53°51' E 008°45'1312.5
2014-Nov-14 20:33N 53°53' E 009°06'3 3.4
2014-Nov-14 19:33N 53°55' E 009°11'0 0.0
2014-Nov-14 18:33N 53°55' E 009°11'0 0.0
2014-Nov-14 17:33N 53°55' E 009°11'3 2.5
2014-Nov-14 16:33N 53°57' E 009°14'8 8.2
2014-Nov-14 15:33N 54°04' E 009°19'8 7.9
2014-Nov-14 14:33N 54°11' E 009°27'13 6.5
2014-Nov-14 12:33N 54°20' E 009°43'6 5.8
2014-Nov-14 11:33N 54°21' E 009°53'7 7.5
2014-Nov-14 10:33N 54°22' E 010°05'2 2.3
2014-Nov-14 09:33N 54°22' E 010°09'2 1.7
2014-Nov-14 08:33N 54°23' E 010°11'9 9.2
2014-Nov-14 07:33N 54°31' E 010°20'4310.6
2014-Nov-14 03:32N 54°30' E 011°34'1010.6
2014-Nov-14 02:33N 54°26' E 011°51'10 9.8
2014-Nov-14 01:34N 54°27' E 012°08'21 9.3
2014-Nov-13 23:18N 54°43' E 012°31'6010.5
2014-Nov-13 17:33N 55°07' E 014°07'1111.0
2014-Nov-13 16:33N 55°16' E 014°19'1311.0
2014-Nov-13 15:23N 55°26' E 014°34'910.6
2014-Nov-13 14:33N 55°30' E 014°47'1110.7
2014-Nov-13 13:33N 55°36' E 015°03'4310.7
2014-Nov-13 09:33N 55°57' E 016°09'1110.8
2014-Nov-13 08:33N 56°03' E 016°26'89 9.8
2014-Nov-12 23:31N 57°22' E 017°38'1010.1
2014-Nov-12 22:32N 57°31' E 017°45'  

Dump ship's entire track history